createdAt,value
2022-09-05T00:00:11.948Z,6.90
2022-09-05T00:05:48.401Z,9.00
2022-09-05T00:11:40.969Z,10.20
2022-09-05T00:17:10.208Z,7.70
2022-09-05T00:24:32.906Z,5.80
2022-09-05T00:30:55.298Z,7.30
2022-09-05T00:36:01.150Z,7.60
2022-09-05T00:41:22.328Z,12.20
2022-09-05T00:47:11.698Z,8.50
2022-09-05T00:53:07.276Z,7.30
2022-09-05T00:58:46.407Z,13.80
2022-09-05T01:04:27.875Z,7.90
2022-09-05T01:10:04.488Z,4.90
2022-09-05T01:15:33.788Z,8.30
2022-09-05T01:21:12.149Z,8.60
2022-09-05T01:27:17.123Z,4.70
2022-09-05T01:32:51.031Z,10.60
2022-09-05T01:38:27.337Z,9.40
2022-09-05T01:44:09.258Z,7.60
2022-09-05T01:49:48.349Z,13.50
2022-09-05T01:56:04.775Z,5.90
2022-09-05T02:01:40.164Z,6.80
2022-09-05T02:07:30.267Z,7.60
2022-09-05T02:13:05.615Z,4.50
2022-09-05T02:18:42.304Z,5.20
2022-09-05T02:24:18.069Z,6.90
2022-09-05T02:29:49.709Z,6.00
2022-09-05T02:35:09.848Z,4.60
2022-09-05T02:45:11.602Z,6.50
2022-09-05T02:46:33.724Z,6.70
2022-09-05T02:57:28.534Z,5.30
2022-09-05T02:58:05.498Z,10.00
2022-09-05T03:03:49.423Z,9.50
2022-09-05T03:09:55.979Z,4.40
2022-09-05T03:15:23.544Z,5.80
2022-09-05T03:21:09.508Z,9.00
2022-09-05T03:27:02.103Z,6.50
2022-09-05T03:32:50.017Z,5.90
2022-09-05T03:38:34.307Z,9.90
2022-09-05T03:44:18.560Z,9.20
2022-09-05T03:55:18.581Z,6.60
2022-09-05T03:57:11.365Z,6.50
2022-09-05T04:02:51.253Z,5.60
2022-09-05T04:08:20.924Z,10.30
2022-09-05T04:13:25.336Z,8.90
2022-09-05T04:19:10.489Z,11.30
2022-09-05T04:24:53.630Z,18.00
2022-09-05T04:30:39.722Z,13.60
2022-09-05T04:36:12.078Z,13.00
2022-09-05T04:41:46.866Z,8.80
2022-09-05T04:47:15.856Z,11.80
2022-09-05T04:52:57.682Z,13.00
2022-09-05T04:59:15.835Z,12.10
2022-09-05T05:06:13.501Z,8.30
2022-09-05T05:12:39.144Z,6.80
2022-09-05T05:18:11.814Z,9.80
2022-09-05T05:21:36.624Z,8.00
2022-09-05T05:27:38.258Z,10.70
2022-09-05T05:33:02.959Z,9.30
2022-09-05T05:38:40.341Z,7.40
2022-09-05T05:44:13.121Z,10.70
2022-09-05T05:49:39.562Z,5.90
2022-09-05T05:55:50.218Z,6.90
2022-09-05T06:01:37.163Z,6.90
2022-09-05T06:07:18.087Z,4.30
2022-09-05T06:14:59.175Z,4.60
2022-09-05T06:20:09.632Z,7.00
2022-09-05T06:25:47.741Z,4.30
2022-09-05T06:37:01.617Z,3.60
2022-09-05T06:42:44.197Z,3.00
2022-09-05T06:48:21.445Z,3.70
2022-09-05T06:54:09.768Z,6.90
2022-09-05T06:59:49.044Z,5.10
2022-09-05T07:05:42.775Z,4.40
2022-09-05T07:11:24.229Z,8.20
2022-09-05T07:16:53.616Z,6.00
2022-09-05T07:22:48.477Z,5.20
2022-09-05T07:28:26.716Z,5.70
2022-09-05T07:33:51.311Z,4.80
2022-09-05T07:39:28.291Z,6.60
2022-09-05T07:44:59.421Z,5.80
2022-09-05T07:51:42.913Z,4.10
2022-09-05T07:56:52.760Z,3.40
2022-09-05T08:01:46.680Z,4.80
2022-09-05T08:07:49.848Z,3.40
2022-09-05T08:13:34.149Z,5.00
2022-09-05T08:18:53.126Z,5.20
2022-09-05T08:24:14.437Z,2.70
2022-09-05T08:29:42.432Z,4.60
2022-09-05T08:35:24.544Z,4.60
2022-09-05T08:41:04.014Z,3.20
2022-09-05T08:46:47.430Z,3.90
2022-09-05T08:52:33.789Z,4.10
2022-09-05T08:58:12.435Z,2.20
2022-09-05T09:04:13.170Z,3.40
2022-09-05T09:09:44.688Z,4.00
2022-09-05T09:15:35.392Z,3.30
2022-09-05T09:21:00.042Z,5.10
2022-09-05T09:26:28.919Z,3.60
2022-09-05T09:32:05.012Z,3.60
2022-09-05T09:37:50.524Z,2.40
2022-09-05T09:43:25.790Z,2.20
2022-09-05T09:49:23.769Z,1.90
2022-09-05T09:54:50.890Z,3.20
2022-09-05T10:00:24.041Z,3.20
2022-09-05T10:10:48.645Z,2.40
2022-09-05T10:12:34.867Z,1.60
2022-09-05T10:18:13.484Z,1.70
2022-09-05T10:23:49.716Z,1.80
2022-09-05T10:29:37.818Z,1.80
2022-09-05T10:35:22.231Z,5.60
2022-09-05T10:41:21.852Z,1.80
2022-09-05T10:46:55.301Z,1.50
2022-09-05T10:52:36.522Z,2.10
2022-09-05T10:58:15.451Z,2.10
2022-09-05T11:03:53.476Z,1.50
2022-09-05T11:09:31.989Z,2.00
2022-09-05T11:14:56.192Z,2.40
2022-09-05T11:20:34.444Z,3.20
2022-09-05T11:26:06.230Z,1.80
2022-09-05T11:32:19.107Z,6.10
2022-09-05T11:40:10.955Z,7.50
2022-09-05T11:43:52.982Z,3.90
2022-09-05T11:49:50.647Z,2.00
2022-09-05T11:55:32.991Z,2.20
2022-09-05T12:01:42.682Z,1.80
2022-09-05T12:07:26.927Z,1.60
2022-09-05T12:13:08.304Z,1.30
2022-09-05T12:18:42.639Z,1.40
2022-09-05T12:25:24.670Z,2.30
2022-09-05T12:30:13.936Z,2.30
2022-09-05T12:36:10.174Z,3.40
2022-09-05T12:42:14.156Z,3.90
2022-09-05T13:03:05.221Z,3.60
2022-09-05T13:04:32.196Z,1.70
2022-09-05T13:14:26.348Z,2.00
2022-09-05T13:15:51.126Z,2.80
2022-09-05T13:21:23.352Z,2.20
2022-09-05T13:26:53.377Z,3.30
2022-09-05T13:37:59.736Z,1.00
2022-09-05T13:38:48.107Z,3.10
2022-09-05T13:44:25.363Z,10.30
2022-09-05T13:49:53.668Z,3.20
2022-09-05T13:55:25.474Z,7.60
2022-09-05T14:01:22.459Z,88.10
2022-09-05T14:06:49.244Z,8.90
2022-09-05T14:12:49.917Z,3.50
2022-09-05T14:18:23.108Z,3.70
2022-09-05T14:23:56.479Z,7.30
2022-09-05T14:29:28.923Z,3.50
2022-09-05T14:37:44.745Z,5.40
2022-09-05T14:40:29.771Z,3.50
2022-09-05T14:46:07.650Z,4.70
2022-09-05T14:51:25.349Z,4.40
2022-09-05T15:01:18.221Z,6.20
2022-09-05T15:02:41.334Z,5.70
2022-09-05T15:07:47.564Z,6.90
2022-09-05T15:13:25.935Z,2.40
2022-09-05T15:18:48.420Z,4.00
2022-09-05T15:24:04.054Z,4.80
2022-09-05T15:29:14.858Z,3.50
2022-09-05T15:34:26.566Z,4.60
2022-09-05T15:39:33.675Z,5.80
2022-09-05T15:44:53.223Z,5.40
2022-09-05T15:50:04.851Z,15.00
2022-09-05T15:55:16.051Z,13.80
2022-09-05T16:00:33.926Z,44.80
2022-09-05T16:10:34.910Z,9.80
2022-09-05T16:12:00.487Z,24.70
2022-09-05T16:23:18.519Z,15.30
2022-09-05T16:23:32.267Z,4.90
2022-09-05T16:27:54.336Z,5.80
2022-09-05T16:38:33.265Z,5.80
2022-09-05T16:43:53.370Z,7.30
2022-09-05T16:49:13.302Z,6.90
2022-09-05T16:54:34.721Z,7.00
2022-09-05T16:59:43.231Z,5.70
2022-09-05T17:05:06.008Z,5.50
2022-09-05T17:10:21.693Z,7.30
2022-09-05T17:15:38.383Z,5.70
2022-09-05T17:20:59.175Z,4.70
2022-09-05T17:29:23.730Z,7.00
2022-09-05T17:31:54.861Z,5.10
2022-09-05T17:37:22.580Z,7.00
2022-09-05T17:42:40.640Z,7.40
2022-09-05T17:47:52.140Z,4.70
2022-09-05T17:52:56.441Z,4.60
2022-09-05T17:58:22.257Z,2.80
2022-09-05T18:03:41.353Z,15.00
2022-09-05T18:08:48.032Z,20.40
2022-09-05T18:14:02.738Z,8.50
2022-09-05T18:19:32.911Z,6.00
2022-09-05T18:24:46.367Z,8.00
2022-09-05T18:30:05.985Z,9.30
2022-09-05T18:35:36.159Z,6.70
2022-09-05T18:40:58.639Z,12.40
2022-09-05T18:46:08.277Z,61.50
2022-09-05T18:51:22.041Z,413.90
2022-09-05T18:56:29.407Z,441.00
2022-09-05T19:01:55.158Z,78.50
2022-09-05T19:07:07.712Z,36.90
2022-09-05T19:12:35.005Z,13.60
2022-09-05T19:18:03.724Z,6.20
2022-09-05T19:23:29.857Z,4.50
2022-09-05T19:36:59.088Z,3.70
2022-09-05T19:37:05.765Z,4.10
2022-09-05T19:44:47.555Z,5.20
2022-09-05T19:47:41.359Z,4.10
2022-09-05T19:50:31.088Z,3.10
2022-09-05T19:55:38.425Z,5.50
2022-09-05T20:00:59.359Z,10.70
2022-09-05T20:06:03.379Z,5.10
2022-09-05T20:11:11.294Z,5.40
2022-09-05T20:16:14.585Z,7.10
2022-09-05T20:26:33.735Z,5.20
2022-09-05T20:31:36.940Z,5.50
2022-09-05T20:43:26.922Z,3.60
2022-09-05T20:50:44.427Z,3.90
2022-09-05T20:54:26.197Z,6.40
2022-09-05T20:58:32.001Z,4.60
2022-09-05T21:03:41.552Z,9.50
2022-09-05T21:08:51.012Z,9.10
2022-09-05T21:13:56.741Z,7.60
2022-09-05T21:18:59.765Z,9.10
2022-09-05T21:24:16.226Z,8.60
2022-09-05T21:29:33.335Z,15.50
2022-09-05T21:34:44.875Z,11.10
2022-09-05T21:39:59.208Z,6.90
2022-09-05T21:50:31.143Z,8.90
2022-09-05T21:59:20.520Z,9.20
2022-09-05T22:00:57.976Z,8.60
2022-09-05T22:06:05.283Z,7.40
2022-09-05T22:11:12.911Z,10.40
2022-09-05T22:16:15.851Z,7.50
2022-09-05T22:21:32.862Z,9.30
2022-09-05T22:27:11.162Z,6.40
2022-09-05T22:32:09.066Z,7.30
2022-09-05T22:37:16.412Z,8.20
2022-09-05T22:42:19.138Z,7.90
2022-09-05T22:47:21.909Z,6.60
2022-09-05T22:52:24.758Z,10.80
2022-09-05T22:57:27.495Z,8.00
2022-09-05T23:02:30.247Z,6.50
2022-09-05T23:07:33.003Z,10.40
2022-09-05T23:12:36.981Z,10.00
2022-09-05T23:17:39.766Z,7.50
2022-09-05T23:22:43.193Z,8.70
2022-09-05T23:27:45.996Z,7.20
2022-09-05T23:32:50.561Z,10.30
2022-09-05T23:37:53.289Z,8.90
2022-09-05T23:42:58.007Z,6.30
2022-09-05T23:48:00.840Z,10.10
2022-09-05T23:53:04.779Z,7.20
2022-09-05T23:58:08.456Z,6.50
